sensor_id;sensor_type;location;lat;lon;timestamp;P1;durP1;ratioP1;P2;durP2;ratioP2
13406;SDS011;6774;48.208;10.766;2023-05-15T00:00:00;2.03;;;1.80;;
13406;SDS011;6774;48.208;10.766;2023-05-15T00:02:37;1.53;;;1.43;;
13406;SDS011;6774;48.208;10.766;2023-05-15T00:05:06;2.40;;;2.20;;
13406;SDS011;6774;48.208;10.766;2023-05-15T00:07:34;1.83;;;1.73;;
13406;SDS011;6774;48.208;10.766;2023-05-15T00:10:04;2.03;;;1.93;;
13406;SDS011;6774;48.208;10.766;2023-05-15T00:12:32;2.73;;;2.63;;
13406;SDS011;6774;48.208;10.766;2023-05-15T00:15:01;1.63;;;1.53;;
13406;SDS011;6774;48.208;10.766;2023-05-15T00:17:28;1.57;;;1.47;;
13406;SDS011;6774;48.208;10.766;2023-05-15T00:19:56;1.77;;;1.67;;
13406;SDS011;6774;48.208;10.766;2023-05-15T00:22:25;1.73;;;1.63;;
13406;SDS011;6774;48.208;10.766;2023-05-15T00:24:52;2.53;;;2.33;;
13406;SDS011;6774;48.208;10.766;2023-05-15T00:27:21;2.93;;;2.80;;
13406;SDS011;6774;48.208;10.766;2023-05-15T00:29:49;2.93;;;2.73;;
13406;SDS011;6774;48.208;10.766;2023-05-15T00:32:17;2.23;;;2.03;;
13406;SDS011;6774;48.208;10.766;2023-05-15T00:34:44;1.77;;;1.67;;
13406;SDS011;6774;48.208;10.766;2023-05-15T00:37:12;2.00;;;1.90;;
13406;SDS011;6774;48.208;10.766;2023-05-15T00:39:40;2.03;;;1.93;;
13406;SDS011;6774;48.208;10.766;2023-05-15T00:42:08;2.70;;;2.60;;
13406;SDS011;6774;48.208;10.766;2023-05-15T00:44:37;2.93;;;2.30;;
13406;SDS011;6774;48.208;10.766;2023-05-15T00:47:07;3.53;;;3.33;;
13406;SDS011;6774;48.208;10.766;2023-05-15T00:49:37;2.33;;;2.23;;
13406;SDS011;6774;48.208;10.766;2023-05-15T00:52:05;3.17;;;2.97;;
13406;SDS011;6774;48.208;10.766;2023-05-15T00:54:34;2.10;;;2.00;;
13406;SDS011;6774;48.208;10.766;2023-05-15T00:57:02;3.70;;;3.50;;
13406;SDS011;6774;48.208;10.766;2023-05-15T00:59:32;3.57;;;3.37;;
13406;SDS011;6774;48.208;10.766;2023-05-15T01:02:01;3.00;;;2.80;;
13406;SDS011;6774;48.208;10.766;2023-05-15T01:04:29;3.13;;;2.93;;
13406;SDS011;6774;48.208;10.766;2023-05-15T01:06:57;2.53;;;2.33;;
13406;SDS011;6774;48.208;10.766;2023-05-15T01:09:25;3.63;;;3.43;;
13406;SDS011;6774;48.208;10.766;2023-05-15T01:11:56;3.50;;;3.30;;
13406;SDS011;6774;48.208;10.766;2023-05-15T01:14:27;3.27;;;3.13;;
13406;SDS011;6774;48.208;10.766;2023-05-15T01:16:54;2.70;;;2.53;;
13406;SDS011;6774;48.208;10.766;2023-05-15T01:19:23;3.50;;;3.30;;
13406;SDS011;6774;48.208;10.766;2023-05-15T01:28:04;3.13;;;2.93;;
13406;SDS011;6774;48.208;10.766;2023-05-15T01:30:35;3.00;;;2.80;;
13406;SDS011;6774;48.208;10.766;2023-05-15T01:33:14;3.33;;;3.13;;
13406;SDS011;6774;48.208;10.766;2023-05-15T01:35:49;3.27;;;3.07;;
13406;SDS011;6774;48.208;10.766;2023-05-15T01:38:23;3.33;;;3.13;;
13406;SDS011;6774;48.208;10.766;2023-05-15T01:40:58;3.97;;;3.67;;
13406;SDS011;6774;48.208;10.766;2023-05-15T01:43:30;3.93;;;3.63;;
13406;SDS011;6774;48.208;10.766;2023-05-15T01:46:01;3.70;;;3.50;;
13406;SDS011;6774;48.208;10.766;2023-05-15T01:48:31;3.17;;;2.97;;
13406;SDS011;6774;48.208;10.766;2023-05-15T01:51:02;4.27;;;3.97;;
13406;SDS011;6774;48.208;10.766;2023-05-15T01:53:33;3.47;;;3.27;;
13406;SDS011;6774;48.208;10.766;2023-05-15T01:56:02;4.07;;;3.20;;
13406;SDS011;6774;48.208;10.766;2023-05-15T01:58:35;3.17;;;2.97;;
13406;SDS011;6774;48.208;10.766;2023-05-15T02:01:05;3.80;;;3.53;;
13406;SDS011;6774;48.208;10.766;2023-05-15T02:03:35;4.00;;;3.80;;
13406;SDS011;6774;48.208;10.766;2023-05-15T02:06:04;3.67;;;3.47;;
13406;SDS011;6774;48.208;10.766;2023-05-15T02:08:33;4.23;;;4.00;;
13406;SDS011;6774;48.208;10.766;2023-05-15T02:11:02;4.23;;;4.03;;
13406;SDS011;6774;48.208;10.766;2023-05-15T02:13:32;5.90;;;5.50;;
13406;SDS011;6774;48.208;10.766;2023-05-15T02:16:03;4.53;;;4.23;;
13406;SDS011;6774;48.208;10.766;2023-05-15T02:18:30;8.03;;;5.67;;
13406;SDS011;6774;48.208;10.766;2023-05-15T02:20:59;6.50;;;6.03;;
13406;SDS011;6774;48.208;10.766;2023-05-15T02:23:28;7.40;;;6.87;;
13406;SDS011;6774;48.208;10.766;2023-05-15T02:26:02;6.97;;;6.47;;
13406;SDS011;6774;48.208;10.766;2023-05-15T02:28:40;7.47;;;6.77;;
13406;SDS011;6774;48.208;10.766;2023-05-15T02:31:18;7.97;;;6.87;;
13406;SDS011;6774;48.208;10.766;2023-05-15T02:33:54;8.93;;;8.13;;
13406;SDS011;6774;48.208;10.766;2023-05-15T02:36:31;8.17;;;7.47;;
13406;SDS011;6774;48.208;10.766;2023-05-15T02:39:01;8.20;;;7.53;;
13406;SDS011;6774;48.208;10.766;2023-05-15T02:41:29;8.43;;;7.83;;
13406;SDS011;6774;48.208;10.766;2023-05-15T02:43:59;5.87;;;5.43;;
13406;SDS011;6774;48.208;10.766;2023-05-15T02:46:30;8.47;;;7.60;;
13406;SDS011;6774;48.208;10.766;2023-05-15T02:48:58;6.93;;;6.43;;
13406;SDS011;6774;48.208;10.766;2023-05-15T02:51:27;6.90;;;6.50;;
13406;SDS011;6774;48.208;10.766;2023-05-15T02:53:55;7.47;;;6.97;;
13406;SDS011;6774;48.208;10.766;2023-05-15T02:56:26;7.40;;;6.77;;
13406;SDS011;6774;48.208;10.766;2023-05-15T02:58:54;8.73;;;8.03;;
13406;SDS011;6774;48.208;10.766;2023-05-15T03:01:22;7.87;;;7.27;;
13406;SDS011;6774;48.208;10.766;2023-05-15T03:03:51;5.83;;;5.43;;
13406;SDS011;6774;48.208;10.766;2023-05-15T03:06:19;7.43;;;6.83;;
13406;SDS011;6774;48.208;10.766;2023-05-15T03:08:47;8.27;;;7.67;;
13406;SDS011;6774;48.208;10.766;2023-05-15T03:11:14;5.60;;;5.20;;
13406;SDS011;6774;48.208;10.766;2023-05-15T03:13:44;6.83;;;6.30;;
13406;SDS011;6774;48.208;10.766;2023-05-15T03:16:12;7.43;;;6.83;;
13406;SDS011;6774;48.208;10.766;2023-05-15T03:18:40;7.27;;;6.67;;
13406;SDS011;6774;48.208;10.766;2023-05-15T03:21:09;7.50;;;6.73;;
13406;SDS011;6774;48.208;10.766;2023-05-15T03:23:36;7.47;;;6.97;;
13406;SDS011;6774;48.208;10.766;2023-05-15T03:26:04;7.03;;;6.47;;
13406;SDS011;6774;48.208;10.766;2023-05-15T03:28:32;7.50;;;6.77;;
13406;SDS011;6774;48.208;10.766;2023-05-15T03:31:00;8.43;;;7.73;;
13406;SDS011;6774;48.208;10.766;2023-05-15T03:33:30;6.60;;;6.10;;
13406;SDS011;6774;48.208;10.766;2023-05-15T03:35:58;10.13;;;9.33;;
13406;SDS011;6774;48.208;10.766;2023-05-15T03:38:27;7.10;;;6.60;;
13406;SDS011;6774;48.208;10.766;2023-05-15T03:40:54;7.97;;;7.13;;
13406;SDS011;6774;48.208;10.766;2023-05-15T03:43:22;8.53;;;7.93;;
13406;SDS011;6774;48.208;10.766;2023-05-15T03:45:50;8.37;;;7.20;;
13406;SDS011;6774;48.208;10.766;2023-05-15T03:48:17;8.43;;;7.83;;
13406;SDS011;6774;48.208;10.766;2023-05-15T03:50:45;7.87;;;7.07;;
13406;SDS011;6774;48.208;10.766;2023-05-15T03:53:13;10.93;;;9.93;;
13406;SDS011;6774;48.208;10.766;2023-05-15T03:55:42;9.10;;;8.47;;
13406;SDS011;6774;48.208;10.766;2023-05-15T03:58:10;9.17;;;8.27;;
13406;SDS011;6774;48.208;10.766;2023-05-15T04:00:38;7.33;;;6.73;;
13406;SDS011;6774;48.208;10.766;2023-05-15T04:03:06;8.50;;;7.70;;
13406;SDS011;6774;48.208;10.766;2023-05-15T04:05:34;8.47;;;7.90;;
13406;SDS011;6774;48.208;10.766;2023-05-15T04:08:01;8.43;;;7.80;;
13406;SDS011;6774;48.208;10.766;2023-05-15T04:10:29;8.83;;;8.13;;
13406;SDS011;6774;48.208;10.766;2023-05-15T04:13:00;8.40;;;7.70;;
13406;SDS011;6774;48.208;10.766;2023-05-15T04:15:28;9.63;;;8.83;;
13406;SDS011;6774;48.208;10.766;2023-05-15T04:17:55;8.53;;;7.83;;
13406;SDS011;6774;48.208;10.766;2023-05-15T04:20:23;9.03;;;8.33;;
13406;SDS011;6774;48.208;10.766;2023-05-15T04:22:52;8.43;;;7.73;;
13406;SDS011;6774;48.208;10.766;2023-05-15T04:25:20;8.33;;;7.73;;
13406;SDS011;6774;48.208;10.766;2023-05-15T04:27:48;8.67;;;8.03;;
13406;SDS011;6774;48.208;10.766;2023-05-15T04:30:17;8.93;;;8.17;;
13406;SDS011;6774;48.208;10.766;2023-05-15T04:32:45;9.00;;;8.30;;
13406;SDS011;6774;48.208;10.766;2023-05-15T04:35:13;10.43;;;9.73;;
13406;SDS011;6774;48.208;10.766;2023-05-15T04:37:41;8.77;;;8.10;;
13406;SDS011;6774;48.208;10.766;2023-05-15T04:40:11;8.50;;;7.90;;
13406;SDS011;6774;48.208;10.766;2023-05-15T04:42:40;8.27;;;7.63;;
13406;SDS011;6774;48.208;10.766;2023-05-15T04:45:08;7.87;;;7.10;;
13406;SDS011;6774;48.208;10.766;2023-05-15T04:47:37;9.57;;;8.77;;
13406;SDS011;6774;48.208;10.766;2023-05-15T04:50:05;9.17;;;8.37;;
13406;SDS011;6774;48.208;10.766;2023-05-15T04:52:34;8.63;;;7.97;;
13406;SDS011;6774;48.208;10.766;2023-05-15T04:55:02;9.27;;;8.47;;
13406;SDS011;6774;48.208;10.766;2023-05-15T04:57:30;8.13;;;7.50;;
13406;SDS011;6774;48.208;10.766;2023-05-15T04:59:57;9.27;;;8.43;;
13406;SDS011;6774;48.208;10.766;2023-05-15T05:02:49;9.43;;;8.70;;
13406;SDS011;6774;48.208;10.766;2023-05-15T05:05:17;9.17;;;8.40;;
13406;SDS011;6774;48.208;10.766;2023-05-15T05:07:44;9.27;;;8.53;;
13406;SDS011;6774;48.208;10.766;2023-05-15T05:10:12;10.27;;;9.43;;
13406;SDS011;6774;48.208;10.766;2023-05-15T05:12:40;11.83;;;11.03;;
13406;SDS011;6774;48.208;10.766;2023-05-15T05:15:08;8.43;;;7.70;;
13406;SDS011;6774;48.208;10.766;2023-05-15T05:17:36;10.07;;;9.27;;
13406;SDS011;6774;48.208;10.766;2023-05-15T05:20:06;9.67;;;8.97;;
13406;SDS011;6774;48.208;10.766;2023-05-15T05:22:38;8.93;;;8.23;;
13406;SDS011;6774;48.208;10.766;2023-05-15T05:25:07;9.60;;;8.83;;
13406;SDS011;6774;48.208;10.766;2023-05-15T05:27:35;9.07;;;8.47;;
13406;SDS011;6774;48.208;10.766;2023-05-15T05:30:03;8.47;;;7.87;;
13406;SDS011;6774;48.208;10.766;2023-05-15T05:32:31;10.63;;;9.93;;
13406;SDS011;6774;48.208;10.766;2023-05-15T05:34:59;7.43;;;6.93;;
13406;SDS011;6774;48.208;10.766;2023-05-15T05:37:28;8.33;;;7.73;;
13406;SDS011;6774;48.208;10.766;2023-05-15T05:39:56;9.77;;;8.97;;
13406;SDS011;6774;48.208;10.766;2023-05-15T05:42:24;6.30;;;5.90;;
13406;SDS011;6774;48.208;10.766;2023-05-15T05:44:52;8.83;;;8.13;;
13406;SDS011;6774;48.208;10.766;2023-05-15T05:47:19;9.83;;;9.07;;
13406;SDS011;6774;48.208;10.766;2023-05-15T05:49:47;7.63;;;7.03;;
13406;SDS011;6774;48.208;10.766;2023-05-15T05:52:15;9.83;;;8.20;;
13406;SDS011;6774;48.208;10.766;2023-05-15T05:54:44;7.80;;;7.23;;
13406;SDS011;6774;48.208;10.766;2023-05-15T05:57:13;9.13;;;8.33;;
13406;SDS011;6774;48.208;10.766;2023-05-15T05:59:41;8.67;;;7.97;;
13406;SDS011;6774;48.208;10.766;2023-05-15T06:02:09;7.30;;;6.80;;
13406;SDS011;6774;48.208;10.766;2023-05-15T06:04:37;9.07;;;8.27;;
13406;SDS011;6774;48.208;10.766;2023-05-15T06:07:04;7.57;;;7.00;;
13406;SDS011;6774;48.208;10.766;2023-05-15T06:09:32;6.63;;;6.07;;
13406;SDS011;6774;48.208;10.766;2023-05-15T06:12:01;6.40;;;6.00;;
13406;SDS011;6774;48.208;10.766;2023-05-15T06:14:30;6.40;;;5.90;;
13406;SDS011;6774;48.208;10.766;2023-05-15T06:16:58;6.60;;;6.20;;
13406;SDS011;6774;48.208;10.766;2023-05-15T06:19:27;6.80;;;6.20;;
13406;SDS011;6774;48.208;10.766;2023-05-15T06:21:55;7.10;;;6.60;;
13406;SDS011;6774;48.208;10.766;2023-05-15T06:24:22;6.20;;;5.80;;
13406;SDS011;6774;48.208;10.766;2023-05-15T06:26:50;7.13;;;6.73;;
13406;SDS011;6774;48.208;10.766;2023-05-15T06:29:19;9.83;;;8.10;;
13406;SDS011;6774;48.208;10.766;2023-05-15T06:31:47;26.87;;;13.90;;
13406;SDS011;6774;48.208;10.766;2023-05-15T06:34:15;50.33;;;21.30;;
13406;SDS011;6774;48.208;10.766;2023-05-15T06:36:42;8.77;;;8.03;;
13406;SDS011;6774;48.208;10.766;2023-05-15T06:39:10;16.10;;;13.03;;
13406;SDS011;6774;48.208;10.766;2023-05-15T06:41:38;18.97;;;10.47;;
13406;SDS011;6774;48.208;10.766;2023-05-15T06:44:10;7.40;;;6.70;;
13406;SDS011;6774;48.208;10.766;2023-05-15T06:46:39;14.67;;;9.57;;
13406;SDS011;6774;48.208;10.766;2023-05-15T06:49:07;6.40;;;6.00;;
13406;SDS011;6774;48.208;10.766;2023-05-15T06:51:35;8.03;;;7.23;;
13406;SDS011;6774;48.208;10.766;2023-05-15T06:54:03;6.20;;;5.77;;
13406;SDS011;6774;48.208;10.766;2023-05-15T06:56:30;4.50;;;4.30;;
13406;SDS011;6774;48.208;10.766;2023-05-15T06:58:58;5.73;;;5.23;;
13406;SDS011;6774;48.208;10.766;2023-05-15T07:01:26;9.87;;;7.20;;
13406;SDS011;6774;48.208;10.766;2023-05-15T07:03:55;5.10;;;4.80;;
13406;SDS011;6774;48.208;10.766;2023-05-15T07:06:23;5.33;;;4.93;;
13406;SDS011;6774;48.208;10.766;2023-05-15T07:08:51;5.33;;;4.93;;
13406;SDS011;6774;48.208;10.766;2023-05-15T07:11:19;5.10;;;4.70;;
13406;SDS011;6774;48.208;10.766;2023-05-15T07:13:47;5.50;;;5.20;;
13406;SDS011;6774;48.208;10.766;2023-05-15T07:16:16;4.90;;;4.60;;
13406;SDS011;6774;48.208;10.766;2023-05-15T07:18:43;6.03;;;5.63;;
13406;SDS011;6774;48.208;10.766;2023-05-15T07:21:12;5.37;;;4.87;;
13406;SDS011;6774;48.208;10.766;2023-05-15T07:23:40;5.37;;;5.07;;
13406;SDS011;6774;48.208;10.766;2023-05-15T07:26:08;5.00;;;4.70;;
13406;SDS011;6774;48.208;10.766;2023-05-15T07:28:45;5.27;;;4.97;;
13406;SDS011;6774;48.208;10.766;2023-05-15T07:31:13;6.83;;;6.13;;
13406;SDS011;6774;48.208;10.766;2023-05-15T07:33:40;5.07;;;4.67;;
13406;SDS011;6774;48.208;10.766;2023-05-15T07:36:08;6.03;;;5.43;;
13406;SDS011;6774;48.208;10.766;2023-05-15T07:38:37;5.73;;;5.23;;
13406;SDS011;6774;48.208;10.766;2023-05-15T07:41:05;6.10;;;5.70;;
13406;SDS011;6774;48.208;10.766;2023-05-15T07:43:32;5.53;;;5.13;;
13406;SDS011;6774;48.208;10.766;2023-05-15T07:46:00;5.77;;;5.43;;
13406;SDS011;6774;48.208;10.766;2023-05-15T07:48:28;5.50;;;5.20;;
13406;SDS011;6774;48.208;10.766;2023-05-15T07:50:55;8.93;;;7.83;;
13406;SDS011;6774;48.208;10.766;2023-05-15T07:53:23;11.03;;;9.00;;
13406;SDS011;6774;48.208;10.766;2023-05-15T07:55:53;5.50;;;5.17;;
13406;SDS011;6774;48.208;10.766;2023-05-15T07:58:21;6.80;;;6.07;;
13406;SDS011;6774;48.208;10.766;2023-05-15T08:00:49;6.67;;;5.87;;
13406;SDS011;6774;48.208;10.766;2023-05-15T08:03:16;7.03;;;6.37;;
13406;SDS011;6774;48.208;10.766;2023-05-15T08:05:44;5.37;;;5.03;;
13406;SDS011;6774;48.208;10.766;2023-05-15T08:08:12;6.17;;;5.77;;
13406;SDS011;6774;48.208;10.766;2023-05-15T08:10:41;6.30;;;5.50;;
13406;SDS011;6774;48.208;10.766;2023-05-15T08:13:10;4.40;;;4.20;;
13406;SDS011;6774;48.208;10.766;2023-05-15T08:15:37;11.53;;;8.73;;
13406;SDS011;6774;48.208;10.766;2023-05-15T08:18:06;4.20;;;3.90;;
13406;SDS011;6774;48.208;10.766;2023-05-15T08:20:35;4.90;;;4.50;;
13406;SDS011;6774;48.208;10.766;2023-05-15T08:23:03;3.57;;;3.37;;
13406;SDS011;6774;48.208;10.766;2023-05-15T08:25:32;10.63;;;6.67;;
13406;SDS011;6774;48.208;10.766;2023-05-15T08:28:00;5.53;;;5.13;;
13406;SDS011;6774;48.208;10.766;2023-05-15T08:30:29;4.60;;;4.23;;
13406;SDS011;6774;48.208;10.766;2023-05-15T08:32:57;4.13;;;3.93;;
13406;SDS011;6774;48.208;10.766;2023-05-15T08:35:25;3.60;;;3.40;;
13406;SDS011;6774;48.208;10.766;2023-05-15T08:37:53;4.87;;;4.57;;
13406;SDS011;6774;48.208;10.766;2023-05-15T08:40:20;7.57;;;7.00;;
13406;SDS011;6774;48.208;10.766;2023-05-15T08:43:04;6.00;;;4.80;;
13406;SDS011;6774;48.208;10.766;2023-05-15T08:45:40;35.03;;;13.17;;
13406;SDS011;6774;48.208;10.766;2023-05-15T08:48:09;4.83;;;4.50;;
13406;SDS011;6774;48.208;10.766;2023-05-15T08:50:39;4.23;;;3.83;;
13406;SDS011;6774;48.208;10.766;2023-05-15T08:53:09;4.93;;;4.53;;
13406;SDS011;6774;48.208;10.766;2023-05-15T08:55:38;3.63;;;3.43;;
13406;SDS011;6774;48.208;10.766;2023-05-15T08:58:07;3.73;;;3.53;;
13406;SDS011;6774;48.208;10.766;2023-05-15T09:00:35;2.83;;;2.63;;
13406;SDS011;6774;48.208;10.766;2023-05-15T09:03:04;3.40;;;3.20;;
13406;SDS011;6774;48.208;10.766;2023-05-15T09:05:32;4.70;;;4.00;;
13406;SDS011;6774;48.208;10.766;2023-05-15T09:08:04;3.30;;;3.10;;
13406;SDS011;6774;48.208;10.766;2023-05-15T09:10:34;4.73;;;4.43;;
13406;SDS011;6774;48.208;10.766;2023-05-15T09:13:02;2.73;;;2.63;;
13406;SDS011;6774;48.208;10.766;2023-05-15T09:15:32;3.93;;;3.73;;
13406;SDS011;6774;48.208;10.766;2023-05-15T09:18:00;2.77;;;2.57;;
13406;SDS011;6774;48.208;10.766;2023-05-15T09:20:30;2.20;;;2.10;;
13406;SDS011;6774;48.208;10.766;2023-05-15T09:23:00;4.43;;;3.47;;
13406;SDS011;6774;48.208;10.766;2023-05-15T09:25:35;3.00;;;2.80;;
13406;SDS011;6774;48.208;10.766;2023-05-15T09:28:04;2.30;;;2.20;;
13406;SDS011;6774;48.208;10.766;2023-05-15T09:30:32;5.00;;;2.93;;
13406;SDS011;6774;48.208;10.766;2023-05-15T09:33:00;2.93;;;2.73;;
13406;SDS011;6774;48.208;10.766;2023-05-15T09:35:33;2.70;;;2.60;;
13406;SDS011;6774;48.208;10.766;2023-05-15T09:38:03;2.33;;;2.23;;
13406;SDS011;6774;48.208;10.766;2023-05-15T09:40:34;4.23;;;3.83;;
13406;SDS011;6774;48.208;10.766;2023-05-15T09:43:02;2.53;;;2.43;;
13406;SDS011;6774;48.208;10.766;2023-05-15T09:45:29;3.33;;;3.13;;
13406;SDS011;6774;48.208;10.766;2023-05-15T09:47:58;3.60;;;3.30;;
13406;SDS011;6774;48.208;10.766;2023-05-15T09:50:31;4.43;;;3.10;;
13406;SDS011;6774;48.208;10.766;2023-05-15T09:53:01;2.43;;;2.33;;
13406;SDS011;6774;48.208;10.766;2023-05-15T09:55:30;2.37;;;2.27;;
13406;SDS011;6774;48.208;10.766;2023-05-15T09:58:05;2.17;;;2.07;;
13406;SDS011;6774;48.208;10.766;2023-05-15T10:00:34;2.80;;;2.60;;
13406;SDS011;6774;48.208;10.766;2023-05-15T10:03:15;2.47;;;2.37;;
13406;SDS011;6774;48.208;10.766;2023-05-15T10:05:44;3.37;;;3.17;;
13406;SDS011;6774;48.208;10.766;2023-05-15T10:08:13;2.93;;;2.73;;
13406;SDS011;6774;48.208;10.766;2023-05-15T10:10:41;3.30;;;3.20;;
13406;SDS011;6774;48.208;10.766;2023-05-15T10:13:09;1.93;;;1.83;;
13406;SDS011;6774;48.208;10.766;2023-05-15T10:15:38;3.17;;;2.87;;
13406;SDS011;6774;48.208;10.766;2023-05-15T10:18:06;2.60;;;2.50;;
13406;SDS011;6774;48.208;10.766;2023-05-15T10:20:34;3.73;;;3.37;;
13406;SDS011;6774;48.208;10.766;2023-05-15T10:23:03;2.33;;;2.23;;
13406;SDS011;6774;48.208;10.766;2023-05-15T10:25:34;2.37;;;2.27;;
13406;SDS011;6774;48.208;10.766;2023-05-15T10:28:08;2.70;;;2.57;;
13406;SDS011;6774;48.208;10.766;2023-05-15T10:30:36;3.43;;;2.57;;
13406;SDS011;6774;48.208;10.766;2023-05-15T10:33:05;2.90;;;2.77;;
13406;SDS011;6774;48.208;10.766;2023-05-15T10:35:34;3.23;;;3.03;;
13406;SDS011;6774;48.208;10.766;2023-05-15T10:38:03;2.93;;;2.83;;
13406;SDS011;6774;48.208;10.766;2023-05-15T10:40:31;3.13;;;2.93;;
13406;SDS011;6774;48.208;10.766;2023-05-15T10:43:03;8.83;;;2.73;;
13406;SDS011;6774;48.208;10.766;2023-05-15T10:45:31;2.90;;;2.23;;
13406;SDS011;6774;48.208;10.766;2023-05-15T10:48:01;1.40;;;1.30;;
13406;SDS011;6774;48.208;10.766;2023-05-15T10:50:32;1.03;;;1.03;;
13406;SDS011;6774;48.208;10.766;2023-05-15T10:53:03;1.00;;;0.70;;
13406;SDS011;6774;48.208;10.766;2023-05-15T10:55:30;2.53;;;1.00;;
13406;SDS011;6774;48.208;10.766;2023-05-15T10:58:00;3.43;;;2.87;;
13406;SDS011;6774;48.208;10.766;2023-05-15T11:00:28;1.67;;;1.57;;
13406;SDS011;6774;48.208;10.766;2023-05-15T11:02:57;2.10;;;2.00;;
13406;SDS011;6774;48.208;10.766;2023-05-15T11:05:26;1.73;;;1.63;;
13406;SDS011;6774;48.208;10.766;2023-05-15T11:10:56;1.50;;;1.40;;
13406;SDS011;6774;48.208;10.766;2023-05-15T11:13:25;1.60;;;1.50;;
13406;SDS011;6774;48.208;10.766;2023-05-15T11:15:53;2.83;;;2.63;;
13406;SDS011;6774;48.208;10.766;2023-05-15T11:18:22;2.20;;;2.10;;
13406;SDS011;6774;48.208;10.766;2023-05-15T11:23:37;1.93;;;1.83;;
13406;SDS011;6774;48.208;10.766;2023-05-15T11:26:07;1.60;;;1.50;;
13406;SDS011;6774;48.208;10.766;2023-05-15T11:28:41;2.00;;;1.90;;
13406;SDS011;6774;48.208;10.766;2023-05-15T11:31:12;2.23;;;2.03;;
13406;SDS011;6774;48.208;10.766;2023-05-15T11:33:41;2.07;;;1.97;;
13406;SDS011;6774;48.208;10.766;2023-05-15T11:36:08;2.13;;;2.03;;
13406;SDS011;6774;48.208;10.766;2023-05-15T11:38:39;1.87;;;1.77;;
13406;SDS011;6774;48.208;10.766;2023-05-15T11:41:15;2.20;;;2.10;;
13406;SDS011;6774;48.208;10.766;2023-05-15T11:43:46;3.27;;;3.07;;
13406;SDS011;6774;48.208;10.766;2023-05-15T11:46:14;2.57;;;2.40;;
13406;SDS011;6774;48.208;10.766;2023-05-15T11:48:43;2.80;;;2.70;;
13406;SDS011;6774;48.208;10.766;2023-05-15T11:51:16;2.30;;;2.20;;
13406;SDS011;6774;48.208;10.766;2023-05-15T11:53:47;3.57;;;3.37;;
13406;SDS011;6774;48.208;10.766;2023-05-15T11:56:16;4.83;;;3.10;;
13406;SDS011;6774;48.208;10.766;2023-05-15T11:58:47;2.17;;;2.00;;
13406;SDS011;6774;48.208;10.766;2023-05-15T12:01:16;2.93;;;2.73;;
13406;SDS011;6774;48.208;10.766;2023-05-15T12:03:45;3.37;;;3.17;;
13406;SDS011;6774;48.208;10.766;2023-05-15T12:06:14;3.27;;;2.93;;
13406;SDS011;6774;48.208;10.766;2023-05-15T12:08:42;3.10;;;2.90;;
13406;SDS011;6774;48.208;10.766;2023-05-15T12:11:10;2.07;;;1.97;;
13406;SDS011;6774;48.208;10.766;2023-05-15T12:13:38;2.87;;;2.63;;
13406;SDS011;6774;48.208;10.766;2023-05-15T12:16:07;2.40;;;2.30;;
13406;SDS011;6774;48.208;10.766;2023-05-15T12:18:35;2.90;;;2.70;;
13406;SDS011;6774;48.208;10.766;2023-05-15T12:21:03;3.13;;;2.63;;
13406;SDS011;6774;48.208;10.766;2023-05-15T12:23:31;2.10;;;1.97;;
13406;SDS011;6774;48.208;10.766;2023-05-15T12:25:59;1.77;;;1.70;;
13406;SDS011;6774;48.208;10.766;2023-05-15T12:28:28;1.80;;;1.70;;
13406;SDS011;6774;48.208;10.766;2023-05-15T12:30:59;1.83;;;1.73;;
13406;SDS011;6774;48.208;10.766;2023-05-15T12:33:28;0.57;;;0.57;;
13406;SDS011;6774;48.208;10.766;2023-05-15T12:35:56;0.73;;;0.73;;
13406;SDS011;6774;48.208;10.766;2023-05-15T12:38:27;2.27;;;0.70;;
13406;SDS011;6774;48.208;10.766;2023-05-15T12:40:56;1.07;;;1.07;;
13406;SDS011;6774;48.208;10.766;2023-05-15T12:43:24;0.70;;;0.70;;
13406;SDS011;6774;48.208;10.766;2023-05-15T12:45:52;1.60;;;0.83;;
13406;SDS011;6774;48.208;10.766;2023-05-15T12:48:21;1.10;;;1.10;;
13406;SDS011;6774;48.208;10.766;2023-05-15T12:50:50;0.70;;;0.70;;
13406;SDS011;6774;48.208;10.766;2023-05-15T12:53:20;1.63;;;0.77;;
13406;SDS011;6774;48.208;10.766;2023-05-15T12:55:48;1.07;;;1.07;;
13406;SDS011;6774;48.208;10.766;2023-05-15T12:58:17;1.10;;;1.00;;
13406;SDS011;6774;48.208;10.766;2023-05-15T13:00:45;1.20;;;1.20;;
13406;SDS011;6774;48.208;10.766;2023-05-15T13:03:14;1.97;;;1.87;;
13406;SDS011;6774;48.208;10.766;2023-05-15T13:05:42;2.17;;;1.47;;
13406;SDS011;6774;48.208;10.766;2023-05-15T13:08:15;1.67;;;1.57;;
13406;SDS011;6774;48.208;10.766;2023-05-15T13:10:44;0.80;;;0.80;;
13406;SDS011;6774;48.208;10.766;2023-05-15T13:13:13;1.40;;;1.30;;
13406;SDS011;6774;48.208;10.766;2023-05-15T13:15:43;0.97;;;0.97;;
13406;SDS011;6774;48.208;10.766;2023-05-15T13:18:11;1.10;;;1.10;;
13406;SDS011;6774;48.208;10.766;2023-05-15T13:20:41;3.40;;;1.40;;
13406;SDS011;6774;48.208;10.766;2023-05-15T13:23:10;0.70;;;0.70;;
13406;SDS011;6774;48.208;10.766;2023-05-15T13:25:41;2.87;;;1.50;;
13406;SDS011;6774;48.208;10.766;2023-05-15T13:28:10;0.50;;;0.50;;
13406;SDS011;6774;48.208;10.766;2023-05-15T13:30:38;0.63;;;0.60;;
13406;SDS011;6774;48.208;10.766;2023-05-15T13:33:07;1.10;;;0.77;;
13406;SDS011;6774;48.208;10.766;2023-05-15T13:35:35;2.80;;;1.10;;
13406;SDS011;6774;48.208;10.766;2023-05-15T13:38:04;0.87;;;0.87;;
13406;SDS011;6774;48.208;10.766;2023-05-15T13:40:35;0.90;;;0.90;;
13406;SDS011;6774;48.208;10.766;2023-05-15T13:43:04;1.07;;;0.50;;
13406;SDS011;6774;48.208;10.766;2023-05-15T13:45:32;1.07;;;1.07;;
13406;SDS011;6774;48.208;10.766;2023-05-15T13:48:00;1.60;;;1.30;;
13406;SDS011;6774;48.208;10.766;2023-05-15T13:50:29;1.73;;;0.90;;
13406;SDS011;6774;48.208;10.766;2023-05-15T13:52:57;5.40;;;1.30;;
13406;SDS011;6774;48.208;10.766;2023-05-15T13:55:24;3.60;;;2.60;;
13406;SDS011;6774;48.208;10.766;2023-05-15T13:57:52;1.30;;;1.20;;
13406;SDS011;6774;48.208;10.766;2023-05-15T14:00:21;0.70;;;0.70;;
13406;SDS011;6774;48.208;10.766;2023-05-15T14:02:49;1.30;;;1.07;;
13406;SDS011;6774;48.208;10.766;2023-05-15T14:05:17;1.17;;;0.97;;
13406;SDS011;6774;48.208;10.766;2023-05-15T14:07:45;1.40;;;1.30;;
13406;SDS011;6774;48.208;10.766;2023-05-15T14:10:12;0.47;;;0.47;;
13406;SDS011;6774;48.208;10.766;2023-05-15T14:12:40;1.73;;;1.63;;
13406;SDS011;6774;48.208;10.766;2023-05-15T14:15:09;1.13;;;1.03;;
13406;SDS011;6774;48.208;10.766;2023-05-15T14:17:38;1.80;;;1.70;;
13406;SDS011;6774;48.208;10.766;2023-05-15T14:20:07;2.73;;;1.70;;
13406;SDS011;6774;48.208;10.766;2023-05-15T14:22:37;1.30;;;1.20;;
13406;SDS011;6774;48.208;10.766;2023-05-15T14:25:05;1.33;;;1.23;;
13406;SDS011;6774;48.208;10.766;2023-05-15T14:27:34;1.33;;;1.33;;
13406;SDS011;6774;48.208;10.766;2023-05-15T14:30:02;1.37;;;1.33;;
13406;SDS011;6774;48.208;10.766;2023-05-15T14:32:31;1.37;;;1.27;;
13406;SDS011;6774;48.208;10.766;2023-05-15T14:35:00;1.63;;;1.57;;
13406;SDS011;6774;48.208;10.766;2023-05-15T14:37:28;1.97;;;1.87;;
13406;SDS011;6774;48.208;10.766;2023-05-15T14:39:55;1.03;;;1.00;;
13406;SDS011;6774;48.208;10.766;2023-05-15T14:42:24;3.13;;;1.50;;
13406;SDS011;6774;48.208;10.766;2023-05-15T14:44:52;1.90;;;1.80;;
13406;SDS011;6774;48.208;10.766;2023-05-15T14:47:20;1.37;;;1.27;;
13406;SDS011;6774;48.208;10.766;2023-05-15T14:49:47;1.20;;;1.10;;
13406;SDS011;6774;48.208;10.766;2023-05-15T14:52:16;2.53;;;1.80;;
13406;SDS011;6774;48.208;10.766;2023-05-15T14:54:44;1.73;;;1.63;;
13406;SDS011;6774;48.208;10.766;2023-05-15T14:57:32;1.00;;;1.00;;
13406;SDS011;6774;48.208;10.766;2023-05-15T14:59:59;3.73;;;2.27;;
13406;SDS011;6774;48.208;10.766;2023-05-15T15:02:27;2.20;;;2.10;;
13406;SDS011;6774;48.208;10.766;2023-05-15T15:04:55;2.20;;;2.10;;
13406;SDS011;6774;48.208;10.766;2023-05-15T15:07:25;1.70;;;1.60;;
13406;SDS011;6774;48.208;10.766;2023-05-15T15:09:54;2.37;;;2.27;;